TAF KSJC
KSJC 270530Z 2706/2806 VRB03KT P6SM BKN250 FM271200 12004KT P6SM SCT250 FM271800 VRB04KT P6SM SCT200 FM272300 33006KT P6SM SCT200 FM280300 VRB03KT P6SM SCT200=
METAR KSJC
WC KSJC
WS KSJC
WV KSJC